createdAt,value
2018-04-01T00:00:46.770Z,3.88
2018-04-01T00:01:46.844Z,3.79
2018-04-01T00:02:46.853Z,3.82
2018-04-01T00:03:46.900Z,3.88
2018-04-01T00:04:46.941Z,3.96
2018-04-01T00:05:46.999Z,3.96
2018-04-01T00:06:47.057Z,3.94
2018-04-01T00:07:47.070Z,3.86
2018-04-01T00:08:47.111Z,3.97
2018-04-01T00:09:47.153Z,3.90
2018-04-01T00:10:47.197Z,4.01
2018-04-01T00:11:47.267Z,4.01
2018-04-01T00:12:47.280Z,3.85
2018-04-01T00:13:47.325Z,3.96
2018-04-01T00:14:47.389Z,4.00
2018-04-01T00:15:47.407Z,3.94
2018-04-01T00:16:47.451Z,3.92
2018-04-01T00:17:47.516Z,4.01
2018-04-01T00:18:47.535Z,3.94
2018-04-01T00:19:47.576Z,4.00
2018-04-01T00:20:47.620Z,4.01
2018-04-01T00:21:47.662Z,4.04
2018-04-01T00:22:47.730Z,4.03
2018-04-01T00:23:47.749Z,3.94
2018-04-01T00:24:47.818Z,3.90
2018-04-01T00:25:47.835Z,3.94
2018-04-01T00:26:47.876Z,3.85
2018-04-01T00:27:47.958Z,3.86
2018-04-01T00:28:47.963Z,3.88
2018-04-01T00:29:48.007Z,3.90
2018-04-01T00:30:48.049Z,3.96
2018-04-01T00:31:48.095Z,4.00
2018-04-01T00:32:48.155Z,3.94
2018-04-01T00:33:48.176Z,3.96
2018-04-01T00:34:48.227Z,4.01
2018-04-01T00:35:48.290Z,3.96
2018-04-01T00:36:48.305Z,3.96
2018-04-01T00:37:48.348Z,3.92
2018-04-01T00:38:48.389Z,4.04
2018-04-01T00:39:48.434Z,4.03
2018-04-01T00:40:48.512Z,3.98
2018-04-01T00:41:48.516Z,4.00
2018-04-01T00:42:48.561Z,4.04
2018-04-01T00:43:48.601Z,4.12
2018-04-01T00:44:48.645Z,4.19
2018-04-01T00:45:48.722Z,4.14
2018-04-01T00:46:48.731Z,4.08
2018-04-01T00:47:48.773Z,4.15
2018-04-01T00:48:48.822Z,4.18
2018-04-01T00:49:48.860Z,4.08
2018-04-01T00:50:48.932Z,4.06
2018-04-01T00:51:48.944Z,4.06
2018-04-01T00:52:49.002Z,4.08
2018-04-01T00:53:49.032Z,4.15
2018-04-01T00:54:49.078Z,4.24
2018-04-01T00:55:49.140Z,4.18
2018-04-01T00:56:49.172Z,4.22
2018-04-01T00:57:49.202Z,4.24
2018-04-01T00:58:49.245Z,4.24
2018-04-01T00:59:49.286Z,4.19
2018-04-01T01:00:49.353Z,4.28
2018-04-01T01:01:49.410Z,4.22
2018-04-01T01:02:49.419Z,4.22
2018-04-01T01:03:49.457Z,4.25
2018-04-01T01:04:49.502Z,4.22
2018-04-01T01:05:49.547Z,4.37
2018-04-01T01:06:49.616Z,4.22
2018-04-01T01:07:49.633Z,4.28
2018-04-01T01:08:49.674Z,4.36
2018-04-01T01:09:49.718Z,4.25
2018-04-01T01:10:49.761Z,4.32
2018-04-01T01:11:49.832Z,4.36
2018-04-01T01:12:49.843Z,4.32
2018-04-01T01:13:49.887Z,4.40
2018-04-01T01:14:49.931Z,4.40
2018-04-01T01:15:49.975Z,4.34
2018-04-01T01:16:50.062Z,4.43
2018-04-01T01:17:50.060Z,4.40
2018-04-01T01:18:50.101Z,4.40
2018-04-01T01:19:50.143Z,4.39
2018-04-01T01:20:50.187Z,4.36
2018-04-01T01:21:50.260Z,4.40
2018-04-01T01:22:50.273Z,4.52
2018-04-01T01:23:50.315Z,4.46
2018-04-01T01:24:50.360Z,4.47
2018-04-01T01:25:50.409Z,4.54
2018-04-01T01:26:50.500Z,4.50
2018-04-01T01:27:50.520Z,4.58
2018-04-01T01:28:50.555Z,4.58
2018-04-01T01:29:50.574Z,4.64
2018-04-01T01:30:50.625Z,4.64
2018-04-01T01:31:50.661Z,4.64
2018-04-01T01:32:50.731Z,4.70
2018-04-01T01:33:50.750Z,4.59
2018-04-01T01:34:50.792Z,4.65
2018-04-01T01:35:50.834Z,4.69
2018-04-01T01:36:50.885Z,4.62
2018-04-01T01:37:50.945Z,4.70
2018-04-01T01:38:50.988Z,4.64
2018-04-01T01:39:51.008Z,4.65
2018-04-01T01:40:51.049Z,4.59
2018-04-01T01:41:51.092Z,4.59
2018-04-01T01:42:51.134Z,4.67
2018-04-01T01:43:51.206Z,4.70
2018-04-01T01:44:51.247Z,4.70
2018-04-01T01:45:51.266Z,4.76
2018-04-01T01:46:51.309Z,4.62
2018-04-01T01:47:51.352Z,4.73
2018-04-01T01:48:51.396Z,4.79
2018-04-01T01:49:51.460Z,4.75
2018-04-01T01:50:51.486Z,4.76
2018-04-01T01:51:51.524Z,4.75
2018-04-01T01:52:51.566Z,4.72
2018-04-01T01:53:51.612Z,4.83
2018-04-01T01:54:51.689Z,4.70
2018-04-01T01:55:51.698Z,4.86
2018-04-01T01:56:51.741Z,4.73
2018-04-01T01:57:51.783Z,4.73
2018-04-01T01:58:51.832Z,4.79
2018-04-01T01:59:51.891Z,4.79
2018-04-01T02:00:51.936Z,4.72
2018-04-01T02:01:51.956Z,4.77
2018-04-01T02:02:52.003Z,4.83
2018-04-01T02:03:52.042Z,4.79
2018-04-01T02:04:52.093Z,4.89
2018-04-01T02:05:52.166Z,4.89
2018-04-01T02:06:52.171Z,4.91
2018-04-01T02:07:52.215Z,4.86
2018-04-01T02:08:52.261Z,4.94
2018-04-01T02:09:52.338Z,4.88
2018-04-01T02:10:52.373Z,4.86
2018-04-01T02:11:52.388Z,4.84
2018-04-01T02:12:52.435Z,4.84
2018-04-01T02:13:52.474Z,4.89
2018-04-01T02:14:52.520Z,4.92
2018-04-01T02:15:52.595Z,4.95
2018-04-01T02:16:52.604Z,4.95
2018-04-01T02:17:52.652Z,4.91
2018-04-01T02:18:52.693Z,4.95
2018-04-01T02:19:52.734Z,4.98
2018-04-01T02:20:52.805Z,4.92
2018-04-01T02:21:52.821Z,5.02
2018-04-01T02:22:52.892Z,5.01
2018-04-01T02:23:52.905Z,5.04
2018-04-01T02:24:52.949Z,5.05
2018-04-01T02:25:52.994Z,5.07
2018-04-01T02:26:53.063Z,5.13
2018-04-01T02:27:53.082Z,5.17
2018-04-01T02:28:53.124Z,5.16
2018-04-01T02:29:53.168Z,5.16
2018-04-01T02:30:53.210Z,5.25
2018-04-01T02:31:53.283Z,5.22
2018-04-01T02:32:53.296Z,5.20
2018-04-01T02:33:53.373Z,5.25
2018-04-01T02:34:53.389Z,5.22
2018-04-01T02:35:53.427Z,5.22
2018-04-01T02:36:54.461Z,5.20
2018-04-01T02:37:53.514Z,5.19
2018-04-01T02:38:53.596Z,5.35
2018-04-01T02:39:53.604Z,5.28
2018-04-01T02:40:53.650Z,5.30
2018-04-01T02:41:53.688Z,5.37
2018-04-01T02:42:53.738Z,5.37
2018-04-01T02:43:53.805Z,5.32
2018-04-01T02:44:53.816Z,5.37
2018-04-01T02:45:53.861Z,5.35
2018-04-01T02:46:53.906Z,5.35
2018-04-01T02:47:53.948Z,5.43
2018-04-01T02:48:54.023Z,5.38
2018-04-01T02:49:54.037Z,5.43
2018-04-01T02:50:54.079Z,5.55
2018-04-01T02:51:54.128Z,5.43
2018-04-01T02:52:54.170Z,5.50
2018-04-01T02:53:54.248Z,5.41
2018-04-01T02:54:54.252Z,5.45
2018-04-01T02:55:54.294Z,5.56
2018-04-01T02:56:54.341Z,5.56
2018-04-01T02:57:54.390Z,5.52
2018-04-01T02:58:54.449Z,5.59
2018-04-01T02:59:54.474Z,5.63
2018-04-01T03:00:54.513Z,5.64
2018-04-01T03:01:54.561Z,5.64
2018-04-01T03:02:54.629Z,5.67
2018-04-01T03:03:54.661Z,5.70
2018-04-01T03:04:54.691Z,5.71
2018-04-01T03:05:54.752Z,5.71
2018-04-01T03:06:54.781Z,5.68
2018-04-01T03:07:54.854Z,5.70
2018-04-01T03:08:54.866Z,5.73
2018-04-01T03:09:54.907Z,5.74
2018-04-01T03:10:54.950Z,5.71
2018-04-01T03:11:54.994Z,5.73
2018-04-01T03:12:55.064Z,5.66
2018-04-01T03:13:55.087Z,5.73
2018-04-01T03:14:55.153Z,5.77
2018-04-01T03:15:55.168Z,5.81
2018-04-01T03:16:55.212Z,5.73
2018-04-01T03:17:55.257Z,5.85
2018-04-01T03:18:55.324Z,5.93
2018-04-01T03:19:55.349Z,5.85
2018-04-01T03:20:55.388Z,5.96
2018-04-01T03:21:55.434Z,5.96
2018-04-01T03:22:55.474Z,5.95
2018-04-01T03:23:55.546Z,5.82
2018-04-01T03:24:55.569Z,5.88
2018-04-01T03:25:55.638Z,5.95
2018-04-01T03:26:55.657Z,6.03
2018-04-01T03:27:55.693Z,6.06
2018-04-01T03:28:55.799Z,6.18
2018-04-01T03:29:55.780Z,6.10
2018-04-01T03:30:55.851Z,6.26
2018-04-01T03:31:55.875Z,6.22
2018-04-01T03:32:55.915Z,6.26
2018-04-01T03:33:55.961Z,6.21
2018-04-01T03:34:56.026Z,6.30
2018-04-01T03:35:56.071Z,6.32
2018-04-01T03:36:56.089Z,6.21
2018-04-01T03:37:56.136Z,6.29
2018-04-01T03:38:56.175Z,6.25
2018-04-01T03:39:56.220Z,6.22
2018-04-01T03:40:56.289Z,6.32
2018-04-01T03:41:56.305Z,6.32
2018-04-01T03:42:56.351Z,6.26
2018-04-01T03:43:56.397Z,6.26
2018-04-01T03:44:56.437Z,6.29
2018-04-01T03:45:56.517Z,6.32
2018-04-01T03:46:56.527Z,6.14
2018-04-01T03:47:56.571Z,6.19
2018-04-01T03:48:56.623Z,6.16
2018-04-01T03:49:56.656Z,6.13
2018-04-01T03:50:56.736Z,6.09
2018-04-01T03:51:56.744Z,6.18
2018-04-01T03:52:56.788Z,6.16
2018-04-01T03:53:57.756Z,6.11
2018-04-01T03:54:56.877Z,6.16
2018-04-01T03:55:56.956Z,6.13
2018-04-01T03:56:56.962Z,6.22
2018-04-01T03:57:57.008Z,6.26
2018-04-01T03:58:57.051Z,6.32
2018-04-01T03:59:57.096Z,6.29
2018-04-01T04:00:57.169Z,6.32
2018-04-01T04:01:57.183Z,6.29
2018-04-01T04:02:57.228Z,6.25
2018-04-01T04:03:57.271Z,6.18
2018-04-01T04:04:57.315Z,6.21
2018-04-01T04:05:57.389Z,6.16
2018-04-01T04:06:57.404Z,6.14
2018-04-01T04:07:57.446Z,6.22
2018-04-01T04:08:57.495Z,6.19
2018-04-01T04:09:57.533Z,6.14
2018-04-01T04:10:57.602Z,6.06
2018-04-01T04:11:57.622Z,6.09
2018-04-01T04:12:57.692Z,6.09
2018-04-01T04:13:57.714Z,6.13
2018-04-01T04:14:57.756Z,6.04
2018-04-01T04:15:57.796Z,5.98
2018-04-01T04:16:57.864Z,5.95
2018-04-01T04:17:57.910Z,5.96
2018-04-01T04:18:57.930Z,5.88
2018-04-01T04:19:57.976Z,5.93
2018-04-01T04:20:58.017Z,5.95
2018-04-01T04:21:58.063Z,5.96
2018-04-01T04:22:58.135Z,5.89
2018-04-01T04:23:58.149Z,5.93
2018-04-01T04:24:58.194Z,6.01
2018-04-01T04:25:58.241Z,6.03
2018-04-01T04:26:58.283Z,6.07
2018-04-01T04:27:58.355Z,6.09
2018-04-01T04:28:58.370Z,6.14
2018-04-01T04:29:58.440Z,6.09
2018-04-01T04:30:58.458Z,6.16
2018-04-01T04:31:58.501Z,6.09
2018-04-01T04:32:58.547Z,6.07
2018-04-01T04:33:58.589Z,6.09
2018-04-01T04:34:58.656Z,6.10
2018-04-01T04:35:58.679Z,6.16
2018-04-01T04:36:58.720Z,6.21
2018-04-01T04:37:58.765Z,6.32
2018-04-01T04:38:58.834Z,6.30
2018-04-01T04:39:58.853Z,6.30
2018-04-01T04:40:58.926Z,6.30
2018-04-01T04:41:58.940Z,6.38
2018-04-01T04:42:58.983Z,6.35
2018-04-01T04:43:59.032Z,6.36
2018-04-01T04:44:59.074Z,6.41
2018-04-01T04:45:59.156Z,6.46
2018-04-01T04:46:59.167Z,6.46
2018-04-01T04:47:59.205Z,6.47
2018-04-01T04:48:59.246Z,6.50
2018-04-01T04:49:59.290Z,6.47
2018-04-01T04:50:59.360Z,6.35
2018-04-01T04:51:59.378Z,6.47
2018-04-01T04:52:59.421Z,6.38
2018-04-01T04:53:59.465Z,6.38
2018-04-01T04:54:59.536Z,6.38
2018-04-01T04:55:59.554Z,6.43
2018-04-01T04:56:59.598Z,6.51
2018-04-01T04:57:59.643Z,6.50
2018-04-01T04:58:59.684Z,6.53
2018-04-01T04:59:59.765Z,6.51
2018-04-01T05:00:59.772Z,6.51
2018-04-01T05:01:59.818Z,6.56
2018-04-01T05:02:59.859Z,6.50
2018-04-01T05:03:59.906Z,6.51
2018-04-01T05:04:59.981Z,6.59
2018-04-01T05:05:59.991Z,6.63
2018-04-01T05:07:00.035Z,6.59
2018-04-01T05:08:00.078Z,6.61
2018-04-01T05:09:00.122Z,6.62
2018-04-01T05:10:00.189Z,6.56
2018-04-01T05:11:00.210Z,6.50
2018-04-01T05:12:00.270Z,6.56
2018-04-01T05:13:00.297Z,6.40
2018-04-01T05:14:00.376Z,6.46
2018-04-01T05:15:00.386Z,6.41
2018-04-01T05:16:00.429Z,6.40
2018-04-01T05:17:00.476Z,6.47
2018-04-01T05:18:00.517Z,6.48
2018-04-01T05:19:00.586Z,6.43
2018-04-01T05:20:00.603Z,6.56
2018-04-01T05:21:00.674Z,6.48
2018-04-01T05:22:00.695Z,6.46
2018-04-01T05:23:00.739Z,6.48
2018-04-01T05:24:00.780Z,6.41
2018-04-01T05:25:00.855Z,6.40
2018-04-01T05:26:00.871Z,6.51
2018-04-01T05:27:00.912Z,6.47
2018-04-01T05:28:00.956Z,6.35
2018-04-01T05:29:01.002Z,6.33
2018-04-01T05:30:01.078Z,6.38
2018-04-01T05:31:01.088Z,6.38
2018-04-01T05:32:01.132Z,6.41
2018-04-01T05:33:01.177Z,6.48
2018-04-01T05:34:01.219Z,6.46
2018-04-01T05:35:01.293Z,6.47
2018-04-01T05:36:01.308Z,6.47
2018-04-01T05:37:01.350Z,6.33
2018-04-01T05:38:01.393Z,6.35
2018-04-01T05:39:01.471Z,6.40
2018-04-01T05:40:01.486Z,6.36
2018-04-01T05:41:01.530Z,6.33
2018-04-01T05:42:01.569Z,6.35
2018-04-01T05:43:01.614Z,6.36
2018-04-01T05:44:01.687Z,6.35
2018-04-01T05:45:01.700Z,6.33
2018-04-01T05:46:01.743Z,6.36
2018-04-01T05:47:01.787Z,6.33
2018-04-01T05:48:01.832Z,6.29
2018-04-01T05:49:01.914Z,6.33
2018-04-01T05:50:01.921Z,6.32
2018-04-01T05:51:01.966Z,6.36
2018-04-01T05:52:02.011Z,6.33
2018-04-01T05:53:02.049Z,6.32
2018-04-01T05:54:02.127Z,6.32
2018-04-01T05:55:02.137Z,6.35
2018-04-01T05:56:02.179Z,6.40
2018-04-01T05:57:02.224Z,6.38
2018-04-01T05:58:02.266Z,6.40
2018-04-01T05:59:02.338Z,6.33
2018-04-01T06:00:02.356Z,6.33
2018-04-01T06:01:02.400Z,6.33
2018-04-01T06:02:02.445Z,6.32
2018-04-01T06:03:02.491Z,6.36
2018-04-01T06:04:02.551Z,6.33
2018-04-01T06:05:02.596Z,6.33
2018-04-01T06:06:02.616Z,6.30
2018-04-01T06:07:02.673Z,6.35
2018-04-01T06:08:02.706Z,6.35
2018-04-01T06:09:02.750Z,6.38
2018-04-01T06:10:02.822Z,6.35
2018-04-01T06:11:02.837Z,6.32
2018-04-01T06:12:02.882Z,6.30
2018-04-01T06:13:02.923Z,6.33
2018-04-01T06:14:02.969Z,6.36
2018-04-01T06:15:03.037Z,6.29
2018-04-01T06:16:03.052Z,6.40
2018-04-01T06:17:03.103Z,6.33
2018-04-01T06:18:03.142Z,6.35
2018-04-01T06:19:03.184Z,6.32
2018-04-01T06:20:03.250Z,6.38
2018-04-01T06:21:03.300Z,6.32
2018-04-01T06:22:03.319Z,6.40
2018-04-01T06:23:03.360Z,6.40
2018-04-01T06:24:03.409Z,6.36
2018-04-01T06:25:03.487Z,6.40
2018-04-01T06:26:03.490Z,6.40
2018-04-01T06:27:03.536Z,6.35
2018-04-01T06:28:03.577Z,6.36
2018-04-01T06:29:03.620Z,6.35
2018-04-01T06:30:03.698Z,6.46
2018-04-01T06:31:03.708Z,6.38
2018-04-01T06:32:03.752Z,6.48
2018-04-01T06:33:03.795Z,6.50
2018-04-01T06:34:03.898Z,6.47
2018-04-01T06:35:03.920Z,6.50
2018-04-01T06:36:03.929Z,6.43
2018-04-01T06:37:03.971Z,6.58
2018-04-01T06:38:04.018Z,6.51
2018-04-01T06:39:04.060Z,6.48
2018-04-01T06:40:04.159Z,6.54
2018-04-01T06:41:04.148Z,6.61
2018-04-01T06:42:04.216Z,6.56
2018-04-01T06:43:04.234Z,6.53
2018-04-01T06:44:04.278Z,6.50
2018-04-01T06:45:04.321Z,6.53
2018-04-01T06:46:04.398Z,6.66
2018-04-01T06:47:04.412Z,6.66
2018-04-01T06:48:04.462Z,6.65
2018-04-01T06:49:04.502Z,6.61
2018-04-01T06:50:04.542Z,6.68
2018-04-01T06:51:04.609Z,6.65
2018-04-01T06:52:04.628Z,6.62
2018-04-01T06:53:04.698Z,6.65
2018-04-01T06:54:04.717Z,6.61
2018-04-01T06:55:04.767Z,6.59
2018-04-01T06:56:04.804Z,6.65
2018-04-01T06:57:04.872Z,6.68
2018-04-01T06:58:04.892Z,6.68
2018-04-01T06:59:04.963Z,6.73
2018-04-01T07:00:04.980Z,6.65
2018-04-01T07:01:05.024Z,6.71
2018-04-01T07:02:05.074Z,6.72
2018-04-01T07:03:05.116Z,6.73
2018-04-01T07:04:05.182Z,6.69
2018-04-01T07:05:05.202Z,6.76
2018-04-01T07:06:05.246Z,6.73
2018-04-01T07:07:05.289Z,6.81
2018-04-01T07:08:05.336Z,6.86
2018-04-01T07:09:05.400Z,6.77
2018-04-01T07:10:05.426Z,6.80
2018-04-01T07:11:05.471Z,6.86
2018-04-01T07:12:05.508Z,6.94
2018-04-01T07:13:05.580Z,6.89
2018-04-01T07:14:05.602Z,6.87
2018-04-01T07:15:05.677Z,6.90
2018-04-01T07:16:05.687Z,6.95
2018-04-01T07:17:05.731Z,6.91
2018-04-01T07:18:05.772Z,6.97
2018-04-01T07:19:05.831Z,7.01
2018-04-01T07:20:05.909Z,7.07
2018-04-01T07:21:05.929Z,7.05
2018-04-01T07:22:05.955Z,7.13
2018-04-01T07:23:06.041Z,7.16
2018-04-01T07:24:06.129Z,7.15
2018-04-01T07:25:06.132Z,7.16
2018-04-01T07:26:06.801Z,7.15
2018-04-01T07:27:06.228Z,7.24
2018-04-01T07:28:06.263Z,7.08
2018-04-01T07:29:06.391Z,7.19
2018-04-01T07:30:06.311Z,7.20
2018-04-01T07:31:06.359Z,7.16
2018-04-01T07:32:06.395Z,7.16
2018-04-01T07:33:06.448Z,7.15
2018-04-01T07:34:06.514Z,7.20
2018-04-01T07:35:06.530Z,7.07
2018-04-01T07:36:06.572Z,7.17
2018-04-01T07:37:06.645Z,7.13
2018-04-01T07:38:06.661Z,7.13
2018-04-01T07:39:06.710Z,7.16
2018-04-01T07:40:06.776Z,7.07
2018-04-01T07:41:06.796Z,7.04
2018-04-01T07:42:06.869Z,7.04
2018-04-01T07:43:06.886Z,7.05
2018-04-01T07:44:06.930Z,6.98
2018-04-01T07:45:06.975Z,7.04
2018-04-01T07:46:07.017Z,6.95
2018-04-01T07:47:07.086Z,6.91
2018-04-01T07:48:07.109Z,7.07
2018-04-01T07:49:07.150Z,6.99
2018-04-01T07:50:07.196Z,7.04
2018-04-01T07:51:07.252Z,7.15
2018-04-01T07:52:07.309Z,7.15
2018-04-01T07:53:07.331Z,7.16
2018-04-01T07:54:07.375Z,7.31
2018-04-01T07:55:07.419Z,7.24
2018-04-01T07:56:07.468Z,7.37
2018-04-01T07:57:07.547Z,7.47
2018-04-01T07:58:07.555Z,7.45
2018-04-01T07:59:07.598Z,7.50
2018-04-01T08:00:07.641Z,7.44
2018-04-01T08:01:07.694Z,7.45
2018-04-01T08:02:07.757Z,7.59
2018-04-01T08:03:07.776Z,7.62
2018-04-01T08:04:07.817Z,7.74
2018-04-01T08:05:07.862Z,7.74
2018-04-01T08:06:07.910Z,7.81
2018-04-01T08:07:07.979Z,7.84
2018-04-01T08:08:08.061Z,7.87
2018-04-01T08:09:08.044Z,7.93
2018-04-01T08:10:08.089Z,8.03
2018-04-01T08:11:08.135Z,8.12
2018-04-01T08:12:08.179Z,8.10
2018-04-01T08:13:08.244Z,8.36
2018-04-01T08:14:08.268Z,8.65
2018-04-01T08:15:08.312Z,8.73
2018-04-01T08:16:08.357Z,9.38
2018-04-01T08:17:08.412Z,9.38
2018-04-01T08:18:08.474Z,9.27
2018-04-01T08:19:08.501Z,9.20
2018-04-01T08:20:08.537Z,8.88
2018-04-01T08:21:08.593Z,8.93
2018-04-01T08:22:08.634Z,8.73
2018-04-01T08:23:08.703Z,8.71
2018-04-01T08:24:08.721Z,8.84
2018-04-01T08:25:08.792Z,8.96
2018-04-01T08:26:08.814Z,8.94
2018-04-01T08:27:08.859Z,8.91
2018-04-01T08:28:08.906Z,8.83
2018-04-01T08:29:08.988Z,8.91
2018-04-01T08:30:09.000Z,8.79
2018-04-01T08:31:09.043Z,8.58
2018-04-01T08:32:09.092Z,8.51
2018-04-01T08:33:09.135Z,8.50
2018-04-01T08:34:09.216Z,8.33
2018-04-01T08:35:09.226Z,8.36
2018-04-01T08:36:09.271Z,8.26
2018-04-01T08:37:09.321Z,8.18
2018-04-01T08:38:09.362Z,8.25
2018-04-01T08:39:09.442Z,8.25
2018-04-01T08:40:09.508Z,8.28
2018-04-01T08:41:09.503Z,8.15
2018-04-01T08:42:09.549Z,8.12
2018-04-01T08:43:09.595Z,8.03
2018-04-01T08:44:09.663Z,8.07
2018-04-01T08:45:09.685Z,7.94
2018-04-01T08:46:09.752Z,7.90
2018-04-01T08:47:09.774Z,7.87
2018-04-01T08:48:09.823Z,7.84
2018-04-01T08:49:09.867Z,7.89
2018-04-01T08:50:09.938Z,7.90
2018-04-01T08:51:09.962Z,7.87
2018-04-01T08:52:10.001Z,7.90
2018-04-01T08:53:10.114Z,7.93
2018-04-01T08:54:10.093Z,7.93
2018-04-01T08:55:10.164Z,8.04
2018-04-01T08:56:10.185Z,8.03
2018-04-01T08:57:10.231Z,8.10
2018-04-01T08:58:10.280Z,8.07
2018-04-01T08:59:10.322Z,8.10
2018-04-01T09:00:10.392Z,8.26
2018-04-01T09:01:10.411Z,8.32
2018-04-01T09:02:10.461Z,8.35
2018-04-01T09:03:10.503Z,8.40
2018-04-01T09:04:10.547Z,8.48
2018-04-01T09:05:10.645Z,8.63
2018-04-01T09:06:10.638Z,8.68
2018-04-01T09:07:10.685Z,8.69
2018-04-01T09:08:10.732Z,8.68
2018-04-01T09:09:10.777Z,8.68
2018-04-01T09:10:10.846Z,8.73
2018-04-01T09:11:10.868Z,8.88
2018-04-01T09:12:10.939Z,8.84
2018-04-01T09:13:10.966Z,8.75
2018-04-01T09:14:11.005Z,8.73
2018-04-01T09:15:11.050Z,8.81
2018-04-01T09:16:11.097Z,8.65
2018-04-01T09:17:11.165Z,8.65
2018-04-01T09:18:11.192Z,8.54
2018-04-01T09:19:11.238Z,8.50
2018-04-01T09:20:11.278Z,8.44
2018-04-01T09:21:11.325Z,8.44
2018-04-01T09:22:11.398Z,8.44
2018-04-01T09:23:11.415Z,8.33
2018-04-01T09:24:11.468Z,8.33
2018-04-01T09:25:11.526Z,8.33
2018-04-01T09:26:11.552Z,8.26
2018-04-01T09:27:11.639Z,8.32
2018-04-01T09:28:11.647Z,8.30
2018-04-01T09:29:11.691Z,8.30
2018-04-01T09:30:11.734Z,8.36
2018-04-01T09:31:11.782Z,8.32
2018-04-01T09:32:11.861Z,8.32
2018-04-01T09:33:12.767Z,8.39
2018-04-01T09:34:11.920Z,8.51
2018-04-01T09:35:11.965Z,8.51
2018-04-01T09:36:12.009Z,8.45
2018-04-01T09:37:12.088Z,8.39
2018-04-01T09:38:12.101Z,8.39
2018-04-01T09:39:12.147Z,8.45
2018-04-01T09:40:12.194Z,8.45
2018-04-01T09:41:12.238Z,8.42
2018-04-01T09:42:12.319Z,8.48
2018-04-01T09:43:12.364Z,8.44
2018-04-01T09:44:12.375Z,8.40
2018-04-01T09:45:12.419Z,8.39
2018-04-01T09:46:12.470Z,8.45
2018-04-01T09:47:12.541Z,8.33
2018-04-01T09:48:12.558Z,8.36
2018-04-01T09:49:12.603Z,8.32
2018-04-01T09:50:12.650Z,8.32
2018-04-01T09:51:12.705Z,8.32
2018-04-01T09:52:12.761Z,8.37
2018-04-01T09:53:12.785Z,8.35
2018-04-01T09:54:12.855Z,8.39
2018-04-01T09:55:12.875Z,8.40
2018-04-01T09:56:12.946Z,8.33
2018-04-01T09:57:12.968Z,8.35
2018-04-01T09:58:13.066Z,8.33
2018-04-01T09:59:13.058Z,8.39
2018-04-01T10:00:13.102Z,8.35
2018-04-01T10:01:13.154Z,8.26
2018-04-01T10:02:13.196Z,8.42
2018-04-01T10:03:13.272Z,8.50
2018-04-01T10:04:13.285Z,8.45
2018-04-01T10:05:13.332Z,8.50
2018-04-01T10:06:13.379Z,8.55
2018-04-01T10:07:13.430Z,8.54
2018-04-01T10:08:13.497Z,8.63
2018-04-01T10:09:13.513Z,8.71
2018-04-01T10:10:13.558Z,8.79
2018-04-01T10:11:13.603Z,8.72
2018-04-01T10:12:13.649Z,8.79
2018-04-01T10:13:13.722Z,8.83
2018-04-01T10:14:13.768Z,8.88
2018-04-01T10:15:13.787Z,8.91
2018-04-01T10:16:13.839Z,9.02
2018-04-01T10:17:13.879Z,9.04
2018-04-01T10:18:13.925Z,9.02
2018-04-01T10:19:14.000Z,9.02
2018-04-01T10:20:14.080Z,9.05
2018-04-01T10:21:14.060Z,9.02
2018-04-01T10:22:14.106Z,8.97
2018-04-01T10:23:14.154Z,9.01
2018-04-01T10:24:14.233Z,8.99
2018-04-01T10:25:14.252Z,8.96
2018-04-01T10:26:14.291Z,8.94
2018-04-01T10:27:14.342Z,8.93
2018-04-01T10:28:14.386Z,8.88
2018-04-01T10:29:14.472Z,9.02
2018-04-01T10:30:14.476Z,9.18
2018-04-01T10:31:14.523Z,9.25
2018-04-01T10:32:14.568Z,9.23
2018-04-01T10:33:14.615Z,9.25
2018-04-01T10:34:14.691Z,9.05
2018-04-01T10:35:14.708Z,8.99
2018-04-01T10:36:14.755Z,8.81
2018-04-01T10:37:14.798Z,8.69
2018-04-01T10:38:14.883Z,8.53
2018-04-01T10:39:14.915Z,8.30
2018-04-01T10:40:14.938Z,7.97
2018-04-01T10:41:15.011Z,7.50
2018-04-01T10:42:15.030Z,7.12
2018-04-01T10:43:15.076Z,6.94
2018-04-01T10:44:15.121Z,6.83
2018-04-01T10:45:15.189Z,6.80
2018-04-01T10:46:15.241Z,6.73
2018-04-01T10:47:15.258Z,6.83
2018-04-01T10:48:15.302Z,6.89
2018-04-01T10:49:15.349Z,6.80
2018-04-01T10:50:15.395Z,6.83
2018-04-01T10:51:15.465Z,6.99
2018-04-01T10:52:15.487Z,7.12
2018-04-01T10:53:15.532Z,7.27
2018-04-01T10:54:15.584Z,7.26
2018-04-01T10:55:15.654Z,7.42
2018-04-01T10:56:15.667Z,7.59
2018-04-01T10:57:15.713Z,7.62
2018-04-01T10:58:15.794Z,7.94
2018-04-01T10:59:15.803Z,8.14
2018-04-01T11:00:15.845Z,8.32
2018-04-01T11:01:15.899Z,8.33
2018-04-01T11:02:15.938Z,8.35
2018-04-01T11:03:16.006Z,8.47
2018-04-01T11:04:16.029Z,8.45
2018-04-01T11:05:16.076Z,8.50
2018-04-01T11:06:16.149Z,8.54
2018-04-01T11:07:16.165Z,8.54
2018-04-01T11:08:16.222Z,8.68
2018-04-01T11:09:16.255Z,8.62
2018-04-01T11:10:16.304Z,8.69
2018-04-01T11:11:16.371Z,8.88
2018-04-01T11:12:16.398Z,9.01
2018-04-01T11:13:16.439Z,9.13
2018-04-01T11:14:16.487Z,9.23
2018-04-01T11:15:16.531Z,9.32
2018-04-01T11:16:16.601Z,9.34
2018-04-01T11:17:16.623Z,9.31
2018-04-01T11:18:16.671Z,9.53
2018-04-01T11:19:16.723Z,9.66
2018-04-01T11:20:16.794Z,10.34
2018-04-01T11:21:16.813Z,10.96
2018-04-01T11:22:16.858Z,10.98
2018-04-01T11:23:16.907Z,10.71
2018-04-01T11:24:16.962Z,10.78
2018-04-01T11:25:17.026Z,11.52
2018-04-01T11:26:17.047Z,11.89
2018-04-01T11:27:17.095Z,11.78
2018-04-01T11:28:17.164Z,11.35
2018-04-01T11:29:17.191Z,10.83
2018-04-01T11:30:17.236Z,10.51
2018-04-01T11:31:17.365Z,10.15
2018-04-01T11:32:17.340Z,9.99
2018-04-01T11:33:17.382Z,9.78
2018-04-01T11:34:17.432Z,9.46
2018-04-01T11:35:17.475Z,9.21
2018-04-01T11:36:17.552Z,8.94
2018-04-01T11:37:17.571Z,8.81
2018-04-01T11:38:17.621Z,8.81
2018-04-01T11:39:17.666Z,8.62
2018-04-01T11:40:17.757Z,8.47
2018-04-01T11:41:17.789Z,7.78
2018-04-01T11:42:17.807Z,6.90
2018-04-01T11:43:17.856Z,6.11
2018-04-01T11:44:17.903Z,5.77
2018-04-01T11:45:17.948Z,5.40
2018-04-01T11:46:18.034Z,5.23
2018-04-01T11:47:18.043Z,5.25
2018-04-01T11:48:18.084Z,5.22
2018-04-01T11:49:18.137Z,5.16
2018-04-01T11:50:18.178Z,5.25
2018-04-01T11:51:18.261Z,5.19
2018-04-01T11:52:18.267Z,5.34
2018-04-01T11:53:18.312Z,5.31
2018-04-01T11:54:18.357Z,5.40
2018-04-01T11:55:18.405Z,5.46
2018-04-01T11:56:18.477Z,5.53
2018-04-01T11:57:18.493Z,5.53
2018-04-01T11:58:18.537Z,5.56
2018-04-01T11:59:18.581Z,5.56
2018-04-01T12:00:18.627Z,5.66
2018-04-01T12:01:18.699Z,5.73
2018-04-01T12:02:18.715Z,5.74
2018-04-01T12:03:18.762Z,5.91
2018-04-01T12:04:18.806Z,5.89
2018-04-01T12:05:18.849Z,6.04
2018-04-01T12:06:18.924Z,6.16
2018-04-01T12:07:18.964Z,6.26
2018-04-01T12:08:18.984Z,6.40
2018-04-01T12:09:19.029Z,6.47
2018-04-01T12:10:19.073Z,6.63
2018-04-01T12:11:19.117Z,6.68
2018-04-01T12:12:19.184Z,6.73
2018-04-01T12:13:19.205Z,6.86
2018-04-01T12:14:19.253Z,7.02
2018-04-01T12:15:19.296Z,7.20
2018-04-01T12:16:19.339Z,7.31
2018-04-01T12:17:19.409Z,7.42
2018-04-01T12:18:19.481Z,7.52
2018-04-01T12:19:19.473Z,7.59
2018-04-01T12:20:19.517Z,7.77
2018-04-01T12:21:19.566Z,7.69
2018-04-01T12:22:19.610Z,7.63
2018-04-01T12:23:19.676Z,7.74
2018-04-01T12:24:19.705Z,7.60
2018-04-01T12:25:19.744Z,7.52
2018-04-01T12:26:19.800Z,7.50
2018-04-01T12:27:19.856Z,7.45
2018-04-01T12:28:19.880Z,7.49
2018-04-01T12:29:19.956Z,7.42
2018-04-01T12:30:19.971Z,7.27
2018-04-01T12:31:20.017Z,7.20
2018-04-01T12:32:20.060Z,7.12
2018-04-01T12:33:20.127Z,6.94
2018-04-01T12:34:20.180Z,6.89
2018-04-01T12:35:20.206Z,6.77
2018-04-01T12:36:20.244Z,6.69
2018-04-01T12:37:20.288Z,6.48
2018-04-01T12:38:20.329Z,6.36
2018-04-01T12:39:20.403Z,6.22
2018-04-01T12:40:20.441Z,6.13
2018-04-01T12:41:20.464Z,6.07
2018-04-01T12:42:20.511Z,6.07
2018-04-01T12:43:20.556Z,6.14
2018-04-01T12:44:20.623Z,6.09
2018-04-01T12:45:20.650Z,6.04
2018-04-01T12:46:20.713Z,6.11
2018-04-01T12:47:20.732Z,6.11
2018-04-01T12:48:20.780Z,6.22
2018-04-01T12:49:20.819Z,6.14
2018-04-01T12:50:20.899Z,6.18
2018-04-01T12:51:20.958Z,6.09
2018-04-01T12:52:20.950Z,6.11
2018-04-01T12:53:21.004Z,6.11
2018-04-01T12:54:21.044Z,5.95
2018-04-01T12:55:21.084Z,5.95
2018-04-01T12:56:21.173Z,5.77
2018-04-01T12:57:21.778Z,5.81
2018-04-01T12:58:21.220Z,5.74
2018-04-01T12:59:21.260Z,5.68
2018-04-01T13:00:21.304Z,5.74
2018-04-01T13:01:21.392Z,5.93
2018-04-01T13:02:21.391Z,6.29
2018-04-01T13:03:21.439Z,6.58
2018-04-01T13:04:21.479Z,6.90
2018-04-01T13:05:21.525Z,7.04
2018-04-01T13:06:21.633Z,7.37
2018-04-01T13:07:21.615Z,7.63
2018-04-01T13:08:21.655Z,7.62
2018-04-01T13:09:21.703Z,7.75
2018-04-01T13:10:21.751Z,7.93
2018-04-01T13:11:21.844Z,8.11
2018-04-01T13:12:21.837Z,8.14
2018-04-01T13:13:21.882Z,8.48
2018-04-01T13:14:21.930Z,9.15
2018-04-01T13:15:21.975Z,9.46
2018-04-01T13:16:22.062Z,9.73
2018-04-01T13:17:22.065Z,9.94
2018-04-01T13:18:22.113Z,10.43
2018-04-01T13:19:22.160Z,10.84